Time;durP1;ratioP1;P1;durP2;ratioP2;P2;SDS_P1;SDS_P2;PMS_P1;PMS_P2;Temp;Humidity;BMP_temperature;BMP_pressure;BME280_temperature;BME280_humidity;BME280_pressure;Samples;Min_cycle;Max_cycle;Signal;HPM_P1;HPM_P2
2023/12/15 00:01:33;;;;;;;6.45;4.57;;;;;;;;;;8259243;28;20904;-58
2023/12/15 00:05:33;;;;;;;7.43;5.55;;;;;;;;;;8261789;28;20076;-58
2023/12/15 00:09:33;;;;;;;7.25;4.97;;;;;;;;;;8249757;28;20151;-58
2023/12/15 00:13:33;;;;;;;5.13;4.03;;;;;;;;;;8258973;28;20080;-58
2023/12/15 00:17:34;;;;;;;7.75;4.80;;;;;;;;;;8258977;28;20095;-58
2023/12/15 00:21:34;;;;;;;8.27;4.95;;;;;;;;;;8253793;28;20116;-58
2023/12/15 00:25:34;;;;;;;6.53;4.50;;;;;;;;;;8258937;28;20039;-58
2023/12/15 00:29:34;;;;;;;6.57;4.70;;;;;;;;;;8256970;28;20037;-58
2023/12/15 00:33:34;;;;;;;8.00;5.32;;;;;;;;;;8256775;28;20060;-58
2023/12/15 00:37:35;;;;;;;10.88;4.78;;;;;;;;;;8260844;28;20674;-59
2023/12/15 00:41:35;;;;;;;5.95;5.03;;;;;;;;;;8259079;28;20966;-58
2023/12/15 00:45:35;;;;;;;5.63;4.63;;;;;;;;;;8265079;28;20054;-58
2023/12/15 00:49:35;;;;;;;5.78;4.30;;;;;;;;;;8258063;28;20535;-57
2023/12/15 00:53:36;;;;;;;5.35;4.15;;;;;;;;;;8261320;28;20029;-58
2023/12/15 00:57:36;;;;;;;5.68;3.80;;;;;;;;;;8262527;28;20148;-57
2023/12/15 01:01:36;;;;;;;6.57;4.60;;;;;;;;;;8261448;28;20045;-57
2023/12/15 01:05:36;;;;;;;5.10;4.60;;;;;;;;;;8262984;28;20104;-57
2023/12/15 01:09:37;;;;;;;6.07;4.40;;;;;;;;;;8258632;28;20279;-57
2023/12/15 01:13:37;;;;;;;5.68;4.45;;;;;;;;;;8260319;28;20079;-58
2023/12/15 01:17:38;;;;;;;5.55;4.40;;;;;;;;;;8258039;28;20067;-58
2023/12/15 01:21:38;;;;;;;4.37;3.97;;;;;;;;;;8255397;28;20026;-56
2023/12/15 01:25:38;;;;;;;6.78;4.22;;;;;;;;;;8258742;28;20596;-57
2023/12/15 01:29:38;;;;;;;5.55;4.53;;;;;;;;;;8258584;28;20033;-57
2023/12/15 01:33:38;;;;;;;4.97;4.10;;;;;;;;;;8257750;28;20033;-57
2023/12/15 01:37:38;;;;;;;6.32;4.60;;;;;;;;;;8260008;28;20477;-57
2023/12/15 01:41:39;;;;;;;6.72;4.63;;;;;;;;;;8257259;28;20056;-57
2023/12/15 01:45:39;;;;;;;5.00;4.47;;;;;;;;;;8257503;28;20041;-57
2023/12/15 01:49:39;;;;;;;7.67;5.23;;;;;;;;;;8255947;28;20275;-56
2023/12/15 01:53:39;;;;;;;5.60;4.28;;;;;;;;;;8259075;28;20280;-57
2023/12/15 01:57:40;;;;;;;5.82;4.15;;;;;;;;;;8257347;28;20029;-56
2023/12/15 02:01:41;;;;;;;8.23;4.10;;;;;;;;;;8260200;28;20853;-57
2023/12/15 02:05:41;;;;;;;6.65;4.30;;;;;;;;;;8261489;28;20149;-57
2023/12/15 02:09:42;;;;;;;6.83;5.10;;;;;;;;;;8254446;28;20123;-57
2023/12/15 02:13:42;;;;;;;5.10;4.60;;;;;;;;;;8257529;28;20268;-56
2023/12/15 02:17:42;;;;;;;5.38;4.50;;;;;;;;;;8258971;28;20039;-57
2023/12/15 02:21:43;;;;;;;7.78;4.45;;;;;;;;;;8253203;28;20026;-59
2023/12/15 02:25:43;;;;;;;5.65;4.50;;;;;;;;;;8255327;28;20021;-57
2023/12/15 02:29:43;;;;;;;6.87;4.90;;;;;;;;;;8256791;28;20052;-57
2023/12/15 02:33:43;;;;;;;8.25;5.20;;;;;;;;;;8256746;28;20284;-57
2023/12/15 02:37:44;;;;;;;8.52;5.63;;;;;;;;;;8255769;28;20056;-58
2023/12/15 02:41:44;;;;;;;5.68;5.10;;;;;;;;;;8255883;28;20030;-57
2023/12/15 02:45:44;;;;;;;9.35;5.45;;;;;;;;;;8253804;28;20025;-58
2023/12/15 02:49:44;;;;;;;8.45;5.07;;;;;;;;;;8254423;28;20148;-57
2023/12/15 02:53:45;;;;;;;7.50;5.10;;;;;;;;;;8252814;28;20022;-58
2023/12/15 02:57:45;;;;;;;7.90;5.55;;;;;;;;;;8255561;28;20041;-57
2023/12/15 03:01:45;;;;;;;8.93;6.25;;;;;;;;;;8252852;28;20262;-57
2023/12/15 03:05:45;;;;;;;6.88;5.68;;;;;;;;;;8256147;28;20090;-57
2023/12/15 03:09:45;;;;;;;11.80;5.85;;;;;;;;;;8257652;28;20101;-57
2023/12/15 03:13:45;;;;;;;12.15;5.45;;;;;;;;;;8267668;28;20116;-57
2023/12/15 03:17:46;;;;;;;7.32;5.55;;;;;;;;;;8266367;28;20029;-57
2023/12/15 03:21:46;;;;;;;8.05;5.55;;;;;;;;;;8258007;28;20025;-56
2023/12/15 03:25:46;;;;;;;9.15;5.57;;;;;;;;;;8263030;28;20034;-57
2023/12/15 03:29:46;;;;;;;6.38;5.53;;;;;;;;;;8261479;28;20144;-57
2023/12/15 03:33:46;;;;;;;6.25;5.28;;;;;;;;;;8262774;28;20045;-55
2023/12/15 03:37:47;;;;;;;7.65;5.97;;;;;;;;;;8262468;28;20029;-57
2023/12/15 03:41:47;;;;;;;8.55;5.82;;;;;;;;;;8264042;28;20024;-57
2023/12/15 03:45:47;;;;;;;8.18;5.55;;;;;;;;;;8262648;28;20076;-57
2023/12/15 03:49:48;;;;;;;9.95;6.30;;;;;;;;;;8263329;28;20026;-55
2023/12/15 03:53:48;;;;;;;8.13;5.75;;;;;;;;;;8263398;28;20384;-56
2023/12/15 03:57:48;;;;;;;7.43;5.27;;;;;;;;;;8261309;28;20126;-56
2023/12/15 04:01:48;;;;;;;7.55;5.60;;;;;;;;;;8260084;28;20311;-57
2023/12/15 04:05:49;;;;;;;11.70;5.25;;;;;;;;;;8262698;28;20113;-56
2023/12/15 04:09:49;;;;;;;8.30;5.80;;;;;;;;;;8263361;28;20107;-57
2023/12/15 04:13:49;;;;;;;8.25;5.72;;;;;;;;;;8259251;28;20025;-56
2023/12/15 04:17:49;;;;;;;10.70;6.07;;;;;;;;;;8261857;28;20409;-57
2023/12/15 04:21:49;;;;;;;9.82;5.95;;;;;;;;;;8267161;28;20014;-57
2023/12/15 04:25:50;;;;;;;9.63;6.70;;;;;;;;;;8270509;28;20033;-57
2023/12/15 04:29:50;;;;;;;12.73;6.67;;;;;;;;;;8272424;28;20299;-56
2023/12/15 04:33:50;;;;;;;8.45;6.28;;;;;;;;;;8268183;28;20280;-57
2023/12/15 04:37:50;;;;;;;7.38;5.90;;;;;;;;;;8269739;28;20687;-56
2023/12/15 04:41:51;;;;;;;8.93;6.63;;;;;;;;;;8271770;28;20025;-57
2023/12/15 04:45:51;;;;;;;12.20;7.95;;;;;;;;;;8272430;28;20061;-57
2023/12/15 04:49:51;;;;;;;13.93;8.27;;;;;;;;;;8268778;28;20265;-57
2023/12/15 04:53:51;;;;;;;9.45;7.07;;;;;;;;;;8268859;28;20199;-56
2023/12/15 04:57:51;;;;;;;11.20;8.00;;;;;;;;;;8268554;28;20014;-57
2023/12/15 05:01:52;;;;;;;8.93;6.75;;;;;;;;;;8258238;28;20281;-57
2023/12/15 05:05:52;;;;;;;11.18;7.47;;;;;;;;;;8261602;28;20032;-57
2023/12/15 05:09:52;;;;;;;13.65;7.80;;;;;;;;;;8256546;28;20141;-57
2023/12/15 05:13:52;;;;;;;13.13;8.93;;;;;;;;;;8254402;28;20095;-57
2023/12/15 05:17:52;;;;;;;14.73;9.07;;;;;;;;;;8254340;28;20184;-57
2023/12/15 05:21:53;;;;;;;16.52;8.25;;;;;;;;;;8254202;28;20031;-57
2023/12/15 05:25:53;;;;;;;15.85;8.85;;;;;;;;;;8253462;28;20036;-57
2023/12/15 05:29:53;;;;;;;16.08;8.70;;;;;;;;;;8251034;28;20038;-57
2023/12/15 05:33:53;;;;;;;13.82;9.43;;;;;;;;;;8258781;28;20179;-56
2023/12/15 05:37:54;;;;;;;13.43;8.45;;;;;;;;;;8255963;28;20158;-57
2023/12/15 05:41:54;;;;;;;12.07;8.38;;;;;;;;;;8257301;28;20026;-58
2023/12/15 05:45:54;;;;;;;15.02;9.45;;;;;;;;;;8256950;28;20092;-57
2023/12/15 05:49:54;;;;;;;13.80;9.70;;;;;;;;;;8258130;28;20029;-56
2023/12/15 05:53:54;;;;;;;13.68;8.85;;;;;;;;;;8255851;28;20276;-55
2023/12/15 05:57:55;;;;;;;14.57;9.63;;;;;;;;;;8259691;28;20108;-56
2023/12/15 06:01:55;;;;;;;16.02;9.25;;;;;;;;;;8257238;28;20040;-56
2023/12/15 06:05:55;;;;;;;18.08;12.52;;;;;;;;;;8260776;28;20032;-56
2023/12/15 06:09:55;;;;;;;39.08;19.52;;;;;;;;;;8253815;28;20026;-57
2023/12/15 06:13:56;;;;;;;19.13;10.50;;;;;;;;;;8255162;28;22974;-56
2023/12/15 06:17:57;;;;;;;14.45;8.93;;;;;;;;;;8256927;28;20283;-57
2023/12/15 06:21:57;;;;;;;11.07;8.18;;;;;;;;;;8254333;28;20780;-57
2023/12/15 06:25:57;;;;;;;15.45;9.35;;;;;;;;;;8252274;28;20034;-57
2023/12/15 06:29:57;;;;;;;16.75;9.57;;;;;;;;;;8246323;28;20038;-57
2023/12/15 06:33:58;;;;;;;21.70;11.18;;;;;;;;;;8249417;28;20038;-57
2023/12/15 06:37:58;;;;;;;14.02;8.98;;;;;;;;;;8245341;28;22004;-57
2023/12/15 06:41:58;;;;;;;15.95;9.13;;;;;;;;;;8250210;28;20039;-57
2023/12/15 06:45:59;;;;;;;15.47;9.57;;;;;;;;;;8251215;28;20041;-56
2023/12/15 06:49:59;;;;;;;18.63;9.90;;;;;;;;;;8252986;28;20366;-56
2023/12/15 06:53:59;;;;;;;13.48;9.40;;;;;;;;;;8254093;28;20068;-56
2023/12/15 06:57:59;;;;;;;14.10;8.38;;;;;;;;;;8249296;28;20068;-58
2023/12/15 07:01:59;;;;;;;12.60;8.15;;;;;;;;;;8253264;28;20030;-56
2023/12/15 07:06:00;;;;;;;16.00;9.13;;;;;;;;;;8254578;28;20162;-56
2023/12/15 07:10:00;;;;;;;13.20;7.97;;;;;;;;;;8250389;28;20020;-56
2023/12/15 07:14:01;;;;;;;12.75;7.65;;;;;;;;;;8258933;28;20025;-57
2023/12/15 07:18:01;;;;;;;14.40;8.38;;;;;;;;;;8252705;28;20057;-58
2023/12/15 07:22:01;;;;;;;12.45;8.63;;;;;;;;;;8253064;28;20021;-57
2023/12/15 07:26:01;;;;;;;15.35;9.32;;;;;;;;;;8257906;28;20026;-57
2023/12/15 07:30:01;;;;;;;12.48;8.65;;;;;;;;;;8261339;28;20072;-58
2023/12/15 07:34:02;;;;;;;13.50;8.93;;;;;;;;;;8257548;28;20097;-58
2023/12/15 07:38:02;;;;;;;16.48;9.80;;;;;;;;;;8262381;28;20017;-58
2023/12/15 07:42:02;;;;;;;19.58;10.75;;;;;;;;;;8258709;28;20026;-57
2023/12/15 07:46:02;;;;;;;15.07;10.18;;;;;;;;;;8259015;28;20030;-57
2023/12/15 07:50:03;;;;;;;13.38;9.27;;;;;;;;;;8259759;28;20022;-57
2023/12/15 07:54:03;;;;;;;12.52;9.60;;;;;;;;;;8258801;28;20119;-57
2023/12/15 07:58:04;;;;;;;14.13;10.02;;;;;;;;;;8259803;28;20161;-57
2023/12/15 08:02:04;;;;;;;13.60;9.73;;;;;;;;;;8262715;28;20041;-57
2023/12/15 08:06:04;;;;;;;14.38;9.32;;;;;;;;;;8265629;28;20366;-57
2023/12/15 08:10:05;;;;;;;14.35;9.40;;;;;;;;;;8270672;28;20030;-56
2023/12/15 08:14:05;;;;;;;14.65;8.65;;;;;;;;;;8274123;28;20248;-57
2023/12/15 08:18:06;;;;;;;13.45;8.48;;;;;;;;;;8271077;28;20152;-57
2023/12/15 08:22:06;;;;;;;10.75;8.07;;;;;;;;;;8272121;28;20082;-56
2023/12/15 08:26:07;;;;;;;13.27;7.10;;;;;;;;;;8270844;28;20037;-57
2023/12/15 08:30:08;;;;;;;11.35;7.43;;;;;;;;;;8268244;28;20029;-58
2023/12/15 08:34:08;;;;;;;9.02;6.75;;;;;;;;;;8266527;28;20037;-58
2023/12/15 08:38:08;;;;;;;10.00;7.00;;;;;;;;;;8264489;28;20030;-57
2023/12/15 08:42:09;;;;;;;7.85;6.07;;;;;;;;;;8267296;28;20260;-58
2023/12/15 08:46:09;;;;;;;11.02;6.50;;;;;;;;;;8261039;28;20585;-58
2023/12/15 08:50:09;;;;;;;9.05;6.68;;;;;;;;;;8263811;28;20169;-58
2023/12/15 08:54:09;;;;;;;14.37;7.03;;;;;;;;;;8262550;28;20029;-58
2023/12/15 08:58:09;;;;;;;11.43;7.73;;;;;;;;;;8264138;28;20264;-58
2023/12/15 09:02:11;;;;;;;11.52;7.22;;;;;;;;;;8261451;28;20441;-58
2023/12/15 09:06:11;;;;;;;8.23;6.85;;;;;;;;;;8260373;28;20817;-58
2023/12/15 09:10:11;;;;;;;8.75;6.85;;;;;;;;;;8259247;28;20068;-58
2023/12/15 09:14:11;;;;;;;10.70;6.63;;;;;;;;;;8261545;28;20033;-58
2023/12/15 09:18:12;;;;;;;8.27;6.50;;;;;;;;;;8257816;28;20315;-58
2023/12/15 09:22:12;;;;;;;8.85;6.57;;;;;;;;;;8262105;28;20021;-57
2023/12/15 09:26:12;;;;;;;7.07;5.38;;;;;;;;;;8263515;28;20032;-57
2023/12/15 09:30:13;;;;;;;7.82;6.07;;;;;;;;;;8264584;28;20033;-57
2023/12/15 09:34:13;;;;;;;7.38;6.00;;;;;;;;;;8265766;28;20025;-57
2023/12/15 09:38:13;;;;;;;10.73;5.55;;;;;;;;;;8263750;28;20094;-57
2023/12/15 09:42:13;;;;;;;9.50;5.37;;;;;;;;;;8263845;28;20082;-56
2023/12/15 09:46:14;;;;;;;8.80;5.50;;;;;;;;;;8265074;28;20264;-58
2023/12/15 09:50:16;;;;;;;9.93;5.53;;;;;;;;;;8261990;28;20144;-56
2023/12/15 09:54:16;;;;;;;9.48;5.57;;;;;;;;;;8258584;28;20863;-57
2023/12/15 09:58:17;;;;;;;7.82;5.47;;;;;;;;;;8266848;28;20024;-59
2023/12/15 10:02:17;;;;;;;9.73;6.57;;;;;;;;;;8261390;28;20116;-57
2023/12/15 10:06:18;;;;;;;11.98;6.47;;;;;;;;;;8261925;28;20032;-57
2023/12/15 10:10:20;;;;;;;11.15;6.05;;;;;;;;;;8269259;28;20029;-57
2023/12/15 10:14:20;;;;;;;9.38;6.25;;;;;;;;;;8267403;28;20750;-57
2023/12/15 10:18:22;;;;;;;7.10;6.40;;;;;;;;;;8270609;28;20038;-57
2023/12/15 10:22:22;;;;;;;6.15;5.47;;;;;;;;;;8266042;28;20029;-56
2023/12/15 10:26:23;;;;;;;7.40;5.68;;;;;;;;;;8272061;28;20059;-56
2023/12/15 10:30:23;;;;;;;6.70;5.10;;;;;;;;;;8265908;28;20056;-55
2023/12/15 10:34:24;;;;;;;6.70;5.00;;;;;;;;;;8262794;28;20029;-57
2023/12/15 10:38:25;;;;;;;6.60;4.95;;;;;;;;;;8261283;28;20017;-55
2023/12/15 10:42:25;;;;;;;6.32;4.78;;;;;;;;;;8264907;28;20112;-56
2023/12/15 10:46:27;;;;;;;7.53;4.82;;;;;;;;;;8252197;28;20045;-55
2023/12/15 10:50:28;;;;;;;5.53;4.47;;;;;;;;;;8257276;28;20286;-56
2023/12/15 10:54:28;;;;;;;6.53;4.70;;;;;;;;;;8265615;28;20973;-57
2023/12/15 10:58:30;;;;;;;7.63;5.47;;;;;;;;;;8264832;28;20064;-57
2023/12/15 11:02:31;;;;;;;6.90;5.40;;;;;;;;;;8263555;28;20270;-57
2023/12/15 11:06:32;;;;;;;7.28;5.70;;;;;;;;;;8266719;28;20104;-57
2023/12/15 11:10:32;;;;;;;8.18;5.32;;;;;;;;;;8262970;28;20148;-56
2023/12/15 11:14:35;;;;;;;5.60;5.00;;;;;;;;;;8261224;28;20463;-55
2023/12/15 11:18:38;;;;;;;18.15;10.02;;;;;;;;;;8259979;28;20498;-56
2023/12/15 11:22:42;;;;;;;11.85;7.22;;;;;;;;;;8256456;28;20709;-56
2023/12/15 11:26:44;;;;;;;16.00;8.85;;;;;;;;;;8260889;28;22544;-57
2023/12/15 11:30:45;;;;;;;11.23;6.68;;;;;;;;;;8261986;28;20053;-56
2023/12/15 11:34:46;;;;;;;8.63;6.53;;;;;;;;;;8266752;28;20095;-57
2023/12/15 11:38:49;;;;;;;4.60;4.20;;;;;;;;;;8271182;28;20024;-57
2023/12/15 11:42:51;;;;;;;6.03;4.80;;;;;;;;;;8266209;28;20042;-57
2023/12/15 11:46:52;;;;;;;4.18;3.78;;;;;;;;;;8263997;28;21053;-56
2023/12/15 11:50:52;;;;;;;5.85;3.80;;;;;;;;;;8248527;28;20036;-56
2023/12/15 11:54:52;;;;;;;4.78;4.05;;;;;;;;;;8266245;28;20384;-56
2023/12/15 11:58:53;;;;;;;5.20;3.78;;;;;;;;;;8268193;28;20025;-56
2023/12/15 12:02:53;;;;;;;6.97;4.05;;;;;;;;;;8266301;28;20025;-56
2023/12/15 12:06:53;;;;;;;4.90;4.40;;;;;;;;;;8263018;28;20497;-57
2023/12/15 12:10:54;;;;;;;5.22;4.00;;;;;;;;;;8256674;28;20033;-57
2023/12/15 12:14:54;;;;;;;6.35;4.63;;;;;;;;;;8259643;28;20026;-58
2023/12/15 12:18:55;;;;;;;6.07;4.93;;;;;;;;;;8266054;28;20046;-57
2023/12/15 12:22:55;;;;;;;5.43;4.55;;;;;;;;;;8265476;28;20025;-57
2023/12/15 12:26:55;;;;;;;4.68;4.15;;;;;;;;;;8253462;28;20744;-58
2023/12/15 12:30:56;;;;;;;5.60;4.78;;;;;;;;;;8264325;28;20045;-57
2023/12/15 12:34:57;;;;;;;5.18;4.68;;;;;;;;;;8259556;28;20505;-57
2023/12/15 12:38:57;;;;;;;6.70;3.85;;;;;;;;;;8264118;28;20030;-57
2023/12/15 12:42:58;;;;;;;3.30;2.88;;;;;;;;;;8259778;28;20112;-57
2023/12/15 12:46:58;;;;;;;6.88;2.70;;;;;;;;;;8250805;28;20040;-58
2023/12/15 12:50:58;;;;;;;4.60;2.53;;;;;;;;;;8260545;28;20127;-57
2023/12/15 12:54:59;;;;;;;3.38;2.95;;;;;;;;;;8258819;28;20928;-57
2023/12/15 12:58:59;;;;;;;4.03;2.78;;;;;;;;;;8256157;28;20029;-57
2023/12/15 13:02:59;;;;;;;3.77;3.00;;;;;;;;;;8258527;28;20157;-59
2023/12/15 13:06:59;;;;;;;3.58;2.95;;;;;;;;;;8261563;28;20021;-56
2023/12/15 13:11:00;;;;;;;3.80;3.13;;;;;;;;;;8256383;28;20025;-57
2023/12/15 13:15:00;;;;;;;3.83;3.22;;;;;;;;;;8257277;28;20025;-59
2023/12/15 13:19:00;;;;;;;2.73;2.53;;;;;;;;;;8259943;28;20824;-58
2023/12/15 13:23:01;;;;;;;5.03;3.00;;;;;;;;;;8257728;28;20400;-58
2023/12/15 13:27:01;;;;;;;3.92;2.85;;;;;;;;;;8261873;28;20132;-58
2023/12/15 13:31:02;;;;;;;3.25;2.95;;;;;;;;;;8264263;28;20041;-58
2023/12/15 13:35:02;;;;;;;4.57;3.40;;;;;;;;;;8257611;28;20021;-56
2023/12/15 13:39:03;;;;;;;4.78;3.15;;;;;;;;;;8260035;28;20028;-56
2023/12/15 13:43:03;;;;;;;3.50;3.17;;;;;;;;;;8273965;28;20044;-58
2023/12/15 13:47:03;;;;;;;8.27;4.53;;;;;;;;;;8274650;28;20145;-57
2023/12/15 13:51:04;;;;;;;7.53;4.47;;;;;;;;;;8262652;28;20111;-57
2023/12/15 13:55:04;;;;;;;5.22;3.28;;;;;;;;;;8263478;28;20291;-56
2023/12/15 13:59:04;;;;;;;3.25;2.95;;;;;;;;;;8264560;28;20108;-57
2023/12/15 14:03:04;;;;;;;6.70;3.20;;;;;;;;;;8254571;28;20033;-57
2023/12/15 14:07:05;;;;;;;3.47;3.15;;;;;;;;;;8254693;28;20276;-57
2023/12/15 14:11:05;;;;;;;6.78;3.20;;;;;;;;;;8254059;28;20372;-56
2023/12/15 14:15:07;;;;;;;4.23;3.50;;;;;;;;;;8251113;28;21194;-56
2023/12/15 14:19:08;;;;;;;4.28;3.10;;;;;;;;;;8261557;28;20766;-56
2023/12/15 14:23:09;;;;;;;3.65;2.95;;;;;;;;;;8266236;28;20029;-57
2023/12/15 14:27:09;;;;;;;4.88;3.35;;;;;;;;;;8267253;28;20021;-58
2023/12/15 14:31:10;;;;;;;3.03;2.58;;;;;;;;;;8268136;28;22727;-57
2023/12/15 14:35:11;;;;;;;5.03;3.40;;;;;;;;;;8266400;28;20147;-57
2023/12/15 14:39:11;;;;;;;4.00;2.95;;;;;;;;;;8267416;28;22269;-58
2023/12/15 14:43:13;;;;;;;5.63;2.78;;;;;;;;;;8266902;28;21889;-57
2023/12/15 14:47:14;;;;;;;10.90;6.95;;;;;;;;;;8270383;28;20088;-56
2023/12/15 14:51:14;;;;;;;4.90;3.55;;;;;;;;;;8253842;28;20021;-58
2023/12/15 14:55:14;;;;;;;2.88;2.45;;;;;;;;;;8256283;28;20947;-57
2023/12/15 14:59:15;;;;;;;4.45;3.17;;;;;;;;;;8264018;28;20026;-56
2023/12/15 15:03:15;;;;;;;6.53;3.87;;;;;;;;;;8268827;28;20115;-57
2023/12/15 15:07:15;;;;;;;4.97;3.78;;;;;;;;;;8271248;28;20268;-57
2023/12/15 15:11:15;;;;;;;4.07;3.60;;;;;;;;;;8265338;28;20055;-57
2023/12/15 15:15:15;;;;;;;6.78;4.60;;;;;;;;;;8254172;28;20368;-58
2023/12/15 15:19:16;;;;;;;5.25;3.60;;;;;;;;;;8257282;28;20028;-57
2023/12/15 15:23:16;;;;;;;4.35;3.70;;;;;;;;;;8262166;28;20354;-58
2023/12/15 15:27:17;;;;;;;5.95;3.90;;;;;;;;;;8261623;28;20136;-58
2023/12/15 15:31:18;;;;;;;4.15;3.72;;;;;;;;;;8256596;28;20038;-58
2023/12/15 15:35:18;;;;;;;5.03;3.38;;;;;;;;;;8257572;28;20533;-58
2023/12/15 15:39:18;;;;;;;5.30;3.47;;;;;;;;;;8254303;28;20777;-57
2023/12/15 15:43:19;;;;;;;4.20;3.35;;;;;;;;;;8260093;28;20543;-58
2023/12/15 15:47:19;;;;;;;5.47;3.50;;;;;;;;;;8256899;28;20030;-58
2023/12/15 15:51:23;;;;;;;5.18;3.38;;;;;;;;;;8257749;28;20017;-57
2023/12/15 15:55:23;;;;;;;3.97;3.03;;;;;;;;;;8256705;28;21050;-58
2023/12/15 15:59:23;;;;;;;4.15;3.60;;;;;;;;;;8250777;28;20108;-57
2023/12/15 16:03:24;;;;;;;4.32;3.92;;;;;;;;;;8248984;28;20339;-56
2023/12/15 16:07:24;;;;;;;8.15;3.65;;;;;;;;;;8252053;28;20022;-57
2023/12/15 16:11:24;;;;;;;4.22;3.80;;;;;;;;;;8247522;28;20025;-56
2023/12/15 16:15:24;;;;;;;6.03;4.03;;;;;;;;;;8250782;28;20127;-57
2023/12/15 16:19:25;;;;;;;5.28;3.35;;;;;;;;;;8245557;28;20284;-57
2023/12/15 16:23:27;;;;;;;5.35;3.85;;;;;;;;;;8258241;28;20021;-57
2023/12/15 16:27:28;;;;;;;5.28;4.18;;;;;;;;;;8253602;28;20135;-57
2023/12/15 16:31:30;;;;;;;7.75;4.95;;;;;;;;;;8256230;28;20137;-58
2023/12/15 16:35:30;;;;;;;6.82;5.00;;;;;;;;;;8259839;28;20028;-57
2023/12/15 16:39:30;;;;;;;5.65;3.97;;;;;;;;;;8267093;28;20017;-56
2023/12/15 16:43:33;;;;;;;3.00;2.63;;;;;;;;;;8271451;28;20029;-57
2023/12/15 16:47:33;;;;;;;7.53;3.33;;;;;;;;;;8275752;28;20569;-57
2023/12/15 16:51:36;;;;;;;3.45;3.03;;;;;;;;;;8268548;28;20137;-56
2023/12/15 16:55:36;;;;;;;2.92;2.67;;;;;;;;;;8266442;28;20025;-57
2023/12/15 16:59:41;;;;;;;3.23;2.93;;;;;;;;;;8269516;28;20029;-57
2023/12/15 17:03:42;;;;;;;7.35;4.25;;;;;;;;;;8268025;28;20045;-56
2023/12/15 17:07:42;;;;;;;3.13;2.83;;;;;;;;;;8271298;28;20068;-57
2023/12/15 17:11:43;;;;;;;4.03;3.58;;;;;;;;;;8268086;28;20230;-56
2023/12/15 17:15:43;;;;;;;3.22;2.83;;;;;;;;;;8271662;28;20053;-57
2023/12/15 17:19:43;;;;;;;3.13;2.83;;;;;;;;;;8261085;28;20036;-56
2023/12/15 17:23:44;;;;;;;3.20;2.73;;;;;;;;;;8256315;28;20030;-57
2023/12/15 17:27:44;;;;;;;3.00;2.75;;;;;;;;;;8258218;28;20291;-57
2023/12/15 17:31:47;;;;;;;4.05;3.20;;;;;;;;;;8263421;28;20041;-57
2023/12/15 17:35:47;;;;;;;5.47;3.42;;;;;;;;;;8261061;28;20480;-57
2023/12/15 17:39:48;;;;;;;4.13;3.47;;;;;;;;;;8267330;28;20136;-57
2023/12/15 17:43:48;;;;;;;6.85;3.60;;;;;;;;;;8268001;28;20026;-57
2023/12/15 17:47:48;;;;;;;6.45;4.57;;;;;;;;;;8257638;28;20041;-57
2023/12/15 17:51:49;;;;;;;7.60;5.10;;;;;;;;;;8252215;28;20391;-58
2023/12/15 17:55:49;;;;;;;7.35;4.38;;;;;;;;;;8251562;28;21070;-56
2023/12/15 17:59:50;;;;;;;5.68;3.40;;;;;;;;;;8252929;28;20017;-57
2023/12/15 18:03:52;;;;;;;5.25;3.30;;;;;;;;;;8249831;28;20029;-57
2023/12/15 18:07:54;;;;;;;3.30;2.90;;;;;;;;;;8242255;28;20122;-56
2023/12/15 18:11:54;;;;;;;3.85;2.60;;;;;;;;;;8249815;28;20678;-58
2023/12/15 18:15:56;;;;;;;3.70;3.17;;;;;;;;;;8249558;28;20045;-58
2023/12/15 18:19:56;;;;;;;5.45;2.92;;;;;;;;;;8251588;28;20024;-56
2023/12/15 18:23:58;;;;;;;5.00;3.30;;;;;;;;;;8251636;28;20941;-55
2023/12/15 18:27:59;;;;;;;5.93;4.00;;;;;;;;;;8251823;28;20094;-57
2023/12/15 18:31:59;;;;;;;4.45;3.92;;;;;;;;;;8250175;28;20041;-57
2023/12/15 18:36:01;;;;;;;6.03;4.30;;;;;;;;;;8249071;28;20021;-57
2023/12/15 18:40:01;;;;;;;6.95;4.20;;;;;;;;;;8255077;28;20479;-57
2023/12/15 18:44:01;;;;;;;7.10;5.13;;;;;;;;;;8253081;28;20128;-57
2023/12/15 18:48:02;;;;;;;7.43;4.88;;;;;;;;;;8252331;28;20757;-57
2023/12/15 18:52:03;;;;;;;5.13;3.80;;;;;;;;;;8258619;28;20027;-57
2023/12/15 18:56:03;;;;;;;6.72;4.63;;;;;;;;;;8260404;28;20028;-58
2023/12/15 19:00:04;;;;;;;8.68;3.30;;;;;;;;;;8259919;28;20029;-57
2023/12/15 19:04:04;;;;;;;4.60;3.30;;;;;;;;;;8257602;28;20073;-57
2023/12/15 19:08:04;;;;;;;5.45;3.22;;;;;;;;;;8260371;28;20029;-58
2023/12/15 19:12:05;;;;;;;6.00;3.60;;;;;;;;;;8256677;28;20025;-57
2023/12/15 19:16:06;;;;;;;6.72;3.78;;;;;;;;;;8261593;28;20361;-57
2023/12/15 19:20:07;;;;;;;3.58;3.10;;;;;;;;;;8263260;28;20072;-57
2023/12/15 19:24:07;;;;;;;3.78;2.72;;;;;;;;;;8259055;28;22028;-57
2023/12/15 19:28:08;;;;;;;4.57;2.85;;;;;;;;;;8256777;28;22350;-56
2023/12/15 19:32:08;;;;;;;4.43;3.22;;;;;;;;;;8248617;28;20042;-57
2023/12/15 19:36:09;;;;;;;5.67;2.93;;;;;;;;;;8253124;28;23354;-57
2023/12/15 19:40:09;;;;;;;4.38;3.30;;;;;;;;;;8247909;28;20076;-57
2023/12/15 19:44:09;;;;;;;4.07;3.28;;;;;;;;;;8247185;28;20152;-57
2023/12/15 19:48:10;;;;;;;5.55;2.75;;;;;;;;;;8250891;28;20720;-58
2023/12/15 19:52:10;;;;;;;3.80;3.03;;;;;;;;;;8247810;28;20060;-58
2023/12/15 19:56:21;;;;;;;4.97;3.35;;;;;;;;;;8255322;28;20864;-59
2023/12/15 20:00:21;;;;;;;4.72;3.30;;;;;;;;;;8253804;28;20021;-58
2023/12/15 20:04:21;;;;;;;4.38;2.70;;;;;;;;;;8254942;28;20028;-58
2023/12/15 20:08:22;;;;;;;4.75;3.00;;;;;;;;;;8253816;28;20025;-57
2023/12/15 20:12:22;;;;;;;5.60;3.50;;;;;;;;;;8253525;28;20033;-57
2023/12/15 20:16:22;;;;;;;7.10;3.70;;;;;;;;;;8253371;28;20322;-57
2023/12/15 20:20:23;;;;;;;6.47;3.83;;;;;;;;;;8251265;28;20497;-58
2023/12/15 20:24:23;;;;;;;7.23;3.97;;;;;;;;;;8253460;28;20032;-58
2023/12/15 20:28:23;;;;;;;4.85;3.75;;;;;;;;;;8251211;28;20079;-58
2023/12/15 20:32:23;;;;;;;7.00;4.60;;;;;;;;;;8247942;28;20514;-58
2023/12/15 20:36:24;;;;;;;7.43;4.60;;;;;;;;;;8251669;28;20291;-57
2023/12/15 20:40:25;;;;;;;5.80;4.60;;;;;;;;;;8250947;28;20057;-57
2023/12/15 20:44:25;;;;;;;7.82;4.97;;;;;;;;;;8250952;28;20021;-58
2023/12/15 20:48:25;;;;;;;6.13;4.93;;;;;;;;;;8254156;28;20037;-58
2023/12/15 20:52:25;;;;;;;7.47;5.10;;;;;;;;;;8250077;28;20025;-56
2023/12/15 20:56:26;;;;;;;7.60;5.10;;;;;;;;;;8247249;28;20034;-57
2023/12/15 21:00:27;;;;;;;7.07;4.63;;;;;;;;;;8254253;28;20041;-57
2023/12/15 21:04:27;;;;;;;6.20;4.20;;;;;;;;;;8261546;28;20060;-55
2023/12/15 21:08:27;;;;;;;5.65;3.60;;;;;;;;;;8259132;28;20036;-56
2023/12/15 21:12:27;;;;;;;12.70;3.92;;;;;;;;;;8262981;28;20137;-57
2023/12/15 21:16:28;;;;;;;4.95;3.10;;;;;;;;;;8262353;28;20115;-56
2023/12/15 21:20:28;;;;;;;6.43;3.25;;;;;;;;;;8254044;28;20164;-57
2023/12/15 21:24:28;;;;;;;6.17;2.93;;;;;;;;;;8248626;28;20060;-56
2023/12/15 21:28:28;;;;;;;6.10;2.97;;;;;;;;;;8247444;28;20287;-57
2023/12/15 21:32:28;;;;;;;6.45;3.17;;;;;;;;;;8244674;28;20041;-57
2023/12/15 21:36:29;;;;;;;4.10;3.00;;;;;;;;;;8251672;28;20061;-57
2023/12/15 21:40:35;;;;;;;4.30;3.35;;;;;;;;;;8251528;28;20028;-58
2023/12/15 21:44:37;;;;;;;5.25;3.47;;;;;;;;;;8251905;28;20033;-64
2023/12/15 21:48:37;;;;;;;4.18;3.08;;;;;;;;;;8250756;28;20403;-57
2023/12/15 21:52:38;;;;;;;5.38;3.22;;;;;;;;;;8251774;28;20017;-57
2023/12/15 21:56:38;;;;;;;6.15;3.88;;;;;;;;;;8247609;28;20030;-57
2023/12/15 22:00:38;;;;;;;6.50;3.47;;;;;;;;;;8251399;28;20034;-56
2023/12/15 22:04:38;;;;;;;5.93;2.60;;;;;;;;;;8252276;28;20717;-57
2023/12/15 22:08:38;;;;;;;5.07;2.97;;;;;;;;;;8250828;28;20746;-54
2023/12/15 22:12:39;;;;;;;5.32;3.05;;;;;;;;;;8249876;28;20105;-55
2023/12/15 22:16:39;;;;;;;7.90;3.15;;;;;;;;;;8251831;28;20052;-56
2023/12/15 22:20:39;;;;;;;3.25;2.55;;;;;;;;;;8250958;28;20041;-57
2023/12/15 22:24:39;;;;;;;3.78;2.33;;;;;;;;;;8249965;28;20720;-56
2023/12/15 22:28:41;;;;;;;3.08;2.30;;;;;;;;;;8252981;28;20022;-56
2023/12/15 22:32:41;;;;;;;5.03;2.40;;;;;;;;;;8256846;28;20042;-57
2023/12/15 22:36:41;;;;;;;8.43;2.30;;;;;;;;;;8258886;28;20028;-57
2023/12/15 22:40:42;;;;;;;4.32;1.92;;;;;;;;;;8260614;28;20148;-57
2023/12/15 22:44:42;;;;;;;4.65;2.10;;;;;;;;;;8263910;28;20036;-56
2023/12/15 22:48:42;;;;;;;4.85;1.70;;;;;;;;;;8264045;28;20033;-57
2023/12/15 22:52:43;;;;;;;5.85;2.10;;;;;;;;;;8260347;28;20115;-56
2023/12/15 22:56:43;;;;;;;7.32;2.28;;;;;;;;;;8262688;28;20082;-55
2023/12/15 23:00:43;;;;;;;4.93;1.90;;;;;;;;;;8245014;28;20029;-56
2023/12/15 23:04:43;;;;;;;6.83;2.20;;;;;;;;;;8250793;28;20029;-56
2023/12/15 23:08:44;;;;;;;4.32;1.90;;;;;;;;;;8248225;28;20029;-57
2023/12/15 23:12:44;;;;;;;4.72;2.03;;;;;;;;;;8243928;28;20029;-58
2023/12/15 23:16:44;;;;;;;6.57;2.42;;;;;;;;;;8251177;28;20874;-57
2023/12/15 23:20:45;;;;;;;3.77;1.90;;;;;;;;;;8259546;28;20029;-57
2023/12/15 23:24:45;;;;;;;5.30;1.90;;;;;;;;;;8264917;28;20272;-55
2023/12/15 23:28:46;;;;;;;7.10;2.75;;;;;;;;;;8271429;28;20276;-56
2023/12/15 23:32:47;;;;;;;4.90;2.42;;;;;;;;;;8273780;28;20358;-57
2023/12/15 23:36:48;;;;;;;5.80;2.40;;;;;;;;;;8278350;28;20032;-55
2023/12/15 23:40:48;;;;;;;6.35;2.70;;;;;;;;;;8260053;28;20024;-57
2023/12/15 23:44:48;;;;;;;5.32;2.20;;;;;;;;;;8263349;28;20025;-57
2023/12/15 23:48:49;;;;;;;5.85;2.20;;;;;;;;;;8263554;28;20045;-57
2023/12/15 23:52:50;;;;;;;4.45;2.22;;;;;;;;;;8263009;28;20021;-60
2023/12/15 23:56:50;;;;;;;7.47;2.70;;;;;;;;;;8264878;28;20041;-57
